createdAt,value
2023-05-13T00:01:53.857Z,73.17
2023-05-13T00:04:20.607Z,73.42
2023-05-13T00:06:47.477Z,73.54
2023-05-13T00:09:14.388Z,73.64
2023-05-13T00:11:41.362Z,73.99
2023-05-13T00:14:10.437Z,74.01
2023-05-13T00:16:37.768Z,74.57
2023-05-13T00:19:04.784Z,74.26
2023-05-13T00:21:31.672Z,74.04
2023-05-13T00:23:58.513Z,74.31
2023-05-13T00:26:25.568Z,75.41
2023-05-13T00:28:53.120Z,76.52
2023-05-13T00:31:19.977Z,76.96
2023-05-13T00:33:48.241Z,77.77
2023-05-13T00:36:15.191Z,77.63
2023-05-13T00:38:43.567Z,77.19
2023-05-13T00:41:11.842Z,77.32
2023-05-13T00:43:38.579Z,77.15
2023-05-13T00:46:05.781Z,76.85
2023-05-13T00:48:33.907Z,75.75
2023-05-13T00:51:00.944Z,75.25
2023-05-13T00:53:27.809Z,74.73
2023-05-13T00:55:55.346Z,74.54
2023-05-13T00:58:22.293Z,74.69
2023-05-13T01:01:26.435Z,74.35
2023-05-13T01:04:04.004Z,73.95
2023-05-13T01:06:42.007Z,73.81
2023-05-13T01:09:40.837Z,74.55
2023-05-13T01:12:12.243Z,76.54
2023-05-13T01:14:48.915Z,78.62
2023-05-13T01:17:20.264Z,80.50
2023-05-13T01:19:54.900Z,77.86
2023-05-13T01:22:21.939Z,78.14
2023-05-13T01:24:50.109Z,79.64
2023-05-13T01:27:17.465Z,78.76
2023-05-13T01:29:46.152Z,78.50
2023-05-13T01:32:14.118Z,79.53
2023-05-13T01:34:42.412Z,78.86
2023-05-13T01:37:09.437Z,79.70
2023-05-13T01:39:38.254Z,78.78
2023-05-13T01:42:07.833Z,78.08
2023-05-13T01:44:35.189Z,77.59
2023-05-13T01:47:02.029Z,77.68
2023-05-13T01:49:29.794Z,78.47
2023-05-13T01:51:57.233Z,78.40
2023-05-13T01:54:25.425Z,77.80
2023-05-13T01:56:55.037Z,77.89
2023-05-13T01:59:22.895Z,77.87
2023-05-13T02:01:49.864Z,79.04
2023-05-13T02:04:16.894Z,80.04
2023-05-13T02:06:43.730Z,79.90
2023-05-13T02:09:10.834Z,80.13
2023-05-13T02:11:40.096Z,78.89
2023-05-13T02:14:06.922Z,79.27
2023-05-13T02:16:34.633Z,79.55
2023-05-13T02:19:07.101Z,79.60
2023-05-13T02:21:34.311Z,79.30
2023-05-13T02:24:01.257Z,79.43
2023-05-13T02:26:28.713Z,80.93
2023-05-13T02:28:55.660Z,80.97
2023-05-13T02:31:22.531Z,80.66
2023-05-13T02:33:49.448Z,80.94
2023-05-13T02:36:16.387Z,82.24
2023-05-13T02:38:43.856Z,81.30
2023-05-13T02:41:11.197Z,79.58
2023-05-13T02:43:37.935Z,79.42
2023-05-13T02:46:04.998Z,79.86
2023-05-13T02:48:32.442Z,79.33
2023-05-13T02:51:00.925Z,79.31
2023-05-13T02:53:27.989Z,80.49
2023-05-13T02:55:58.915Z,81.30
2023-05-13T02:58:26.366Z,82.60
2023-05-13T03:00:53.548Z,80.88
2023-05-13T03:03:23.035Z,82.12
2023-05-13T03:05:49.976Z,82.28
2023-05-13T03:08:16.812Z,81.87
2023-05-13T03:10:43.657Z,81.65
2023-05-13T03:13:11.007Z,82.34
2023-05-13T03:15:37.874Z,82.28
2023-05-13T03:18:04.895Z,81.00
2023-05-13T03:20:31.754Z,80.92
2023-05-13T03:22:59.806Z,83.48
2023-05-13T03:25:26.749Z,83.30
2023-05-13T03:27:57.212Z,83.31
2023-05-13T03:30:25.575Z,82.44
2023-05-13T03:32:58.999Z,83.37
2023-05-13T03:35:25.903Z,82.99
2023-05-13T03:37:53.048Z,82.38
2023-05-13T03:40:20.453Z,82.73
2023-05-13T03:42:47.852Z,82.62
2023-05-13T03:45:14.805Z,82.05
2023-05-13T03:47:42.700Z,81.74
2023-05-13T03:50:13.255Z,80.53
2023-05-13T03:52:44.903Z,80.08
2023-05-13T03:55:14.573Z,80.20
2023-05-13T03:57:44.490Z,80.46
2023-05-13T04:00:12.345Z,80.21
2023-05-13T04:02:42.136Z,80.27
2023-05-13T04:05:09.789Z,80.04
2023-05-13T04:07:36.778Z,79.53
2023-05-13T04:10:04.011Z,79.24
2023-05-13T04:12:32.804Z,78.36
2023-05-13T04:15:00.776Z,78.05
2023-05-13T04:17:28.473Z,78.06
2023-05-13T04:19:55.685Z,77.53
2023-05-13T04:22:24.396Z,77.42
2023-05-13T04:24:56.126Z,77.62
2023-05-13T04:27:23.999Z,77.01
2023-05-13T04:29:53.400Z,76.61
2023-05-13T04:32:21.425Z,76.98
2023-05-13T04:34:51.176Z,76.39
2023-05-13T04:37:18.592Z,76.03
2023-05-13T04:39:46.599Z,76.13
2023-05-13T04:42:14.159Z,77.08
2023-05-13T04:44:40.868Z,76.19
2023-05-13T04:47:07.739Z,76.54
2023-05-13T04:49:34.591Z,75.55
2023-05-13T04:52:03.981Z,75.20
2023-05-13T04:54:33.398Z,74.81
2023-05-13T04:57:01.354Z,74.40
2023-05-13T04:59:30.549Z,73.79
2023-05-13T05:01:57.815Z,73.12
2023-05-13T05:04:25.186Z,72.96
2023-05-13T05:06:52.717Z,72.88
2023-05-13T05:09:19.561Z,71.19
2023-05-13T05:11:50.194Z,71.25
2023-05-13T05:14:18.618Z,69.74
2023-05-13T05:16:45.940Z,68.58
2023-05-13T05:19:14.249Z,66.05
2023-05-13T05:21:41.559Z,64.33
2023-05-13T05:24:09.117Z,62.39
2023-05-13T05:26:36.490Z,64.77
2023-05-13T05:29:03.325Z,63.30
2023-05-13T05:31:30.688Z,61.84
2023-05-13T05:34:01.398Z,60.13
2023-05-13T05:36:29.168Z,60.19
2023-05-13T05:38:56.209Z,58.14
2023-05-13T05:41:30.120Z,58.14
2023-05-13T05:43:56.963Z,58.03
2023-05-13T05:46:23.946Z,55.99
2023-05-13T05:48:51.565Z,55.08
2023-05-13T05:51:18.416Z,56.37
2023-05-13T05:53:45.453Z,54.51
2023-05-13T05:56:13.646Z,54.45
2023-05-13T05:58:41.495Z,54.73
2023-05-13T06:01:08.352Z,53.79
2023-05-13T06:03:36.125Z,53.17
2023-05-13T06:06:04.499Z,51.33
2023-05-13T06:08:32.039Z,50.08
2023-05-13T06:10:59.600Z,50.30
2023-05-13T06:13:26.853Z,49.40
2023-05-13T06:15:53.622Z,49.10
2023-05-13T06:18:20.633Z,47.33
2023-05-13T06:20:47.687Z,47.01
2023-05-13T06:23:14.525Z,47.90
2023-05-13T06:25:41.669Z,47.60
2023-05-13T06:28:11.594Z,46.53
2023-05-13T06:30:38.431Z,48.06
2023-05-13T06:33:05.474Z,47.96
2023-05-13T06:35:32.425Z,47.97
2023-05-13T06:38:01.122Z,47.45
2023-05-13T06:40:28.286Z,48.10
2023-05-13T06:42:55.917Z,47.81
2023-05-13T06:45:29.125Z,48.56
2023-05-13T06:47:56.164Z,48.82
2023-05-13T06:50:23.373Z,49.42
2023-05-13T06:52:50.768Z,50.18
2023-05-13T06:55:18.321Z,48.91
2023-05-13T06:57:46.624Z,50.09
2023-05-13T07:00:15.578Z,50.24
2023-05-13T07:02:42.604Z,50.23
2023-05-13T07:05:11.596Z,49.61
2023-05-13T07:07:38.579Z,49.87
2023-05-13T07:10:05.955Z,50.06
2023-05-13T07:12:33.099Z,49.89
2023-05-13T07:15:00.027Z,49.61
2023-05-13T07:17:26.858Z,49.82
2023-05-13T07:19:53.953Z,49.51
2023-05-13T07:22:20.953Z,49.35
2023-05-13T07:24:47.694Z,49.46
2023-05-13T07:27:14.540Z,49.39
2023-05-13T07:29:41.388Z,48.91
2023-05-13T07:32:08.568Z,48.79
2023-05-13T07:34:36.194Z,48.49
2023-05-13T07:37:04.670Z,48.92
2023-05-13T07:39:31.523Z,48.80
2023-05-13T07:41:58.361Z,48.44
2023-05-13T07:44:26.056Z,47.92
2023-05-13T07:46:53.178Z,48.65
2023-05-13T07:49:21.249Z,46.86
2023-05-13T07:51:48.297Z,46.07
2023-05-13T07:54:15.140Z,46.33
2023-05-13T07:56:43.821Z,46.95
2023-05-13T07:59:10.861Z,46.57
2023-05-13T08:01:37.812Z,45.88
2023-05-13T08:04:05.016Z,45.26
2023-05-13T08:06:33.161Z,44.42
2023-05-13T08:09:01.082Z,44.82
2023-05-13T08:11:28.555Z,44.84
2023-05-13T08:13:55.716Z,44.59
2023-05-13T08:16:22.802Z,45.10
2023-05-13T08:18:49.881Z,44.66
2023-05-13T08:21:16.846Z,45.22
2023-05-13T08:23:45.926Z,45.61
2023-05-13T08:26:13.607Z,45.69
2023-05-13T08:28:40.955Z,46.01
2023-05-13T08:31:13.804Z,46.01
2023-05-13T08:33:42.220Z,46.14
2023-05-13T08:36:09.114Z,46.54
2023-05-13T08:38:35.904Z,46.55
2023-05-13T08:41:06.260Z,47.24
2023-05-13T08:43:33.688Z,50.03
2023-05-13T08:46:03.550Z,48.64
2023-05-13T08:48:31.778Z,47.00
2023-05-13T08:51:01.590Z,46.58
2023-05-13T08:53:29.149Z,47.62
2023-05-13T08:55:56.602Z,47.02
2023-05-13T08:58:25.290Z,46.43
2023-05-13T09:00:53.596Z,45.19
2023-05-13T09:03:21.128Z,42.85
2023-05-13T09:05:50.820Z,41.68
2023-05-13T09:08:17.678Z,43.24
2023-05-13T09:10:44.531Z,45.35
2023-05-13T09:13:12.993Z,45.54
2023-05-13T09:15:44.705Z,45.66
2023-05-13T09:18:14.291Z,47.34
2023-05-13T09:20:42.641Z,44.76
2023-05-13T09:23:10.532Z,46.11
2023-05-13T09:25:38.486Z,46.32
2023-05-13T09:28:07.259Z,42.26
2023-05-13T09:30:37.977Z,42.34
2023-05-13T09:33:06.214Z,43.12
2023-05-13T09:35:34.346Z,42.84
2023-05-13T09:38:01.302Z,42.41
2023-05-13T09:40:28.213Z,43.30
2023-05-13T09:43:00.942Z,43.13
2023-05-13T09:45:28.567Z,43.82
2023-05-13T09:47:59.081Z,42.03
2023-05-13T09:50:27.632Z,38.15
2023-05-13T09:52:55.244Z,37.75
2023-05-13T09:55:22.797Z,37.25
2023-05-13T09:57:49.646Z,37.55
2023-05-13T10:00:28.668Z,38.10
2023-05-13T10:03:01.453Z,37.48
2023-05-13T10:05:30.924Z,36.36
2023-05-13T10:08:01.735Z,36.32
2023-05-13T10:10:34.356Z,35.49
2023-05-13T10:13:23.946Z,35.29
2023-05-13T10:15:54.419Z,34.85
2023-05-13T10:18:23.408Z,34.06
2023-05-13T10:20:52.653Z,34.58
2023-05-13T10:23:21.108Z,36.03
2023-05-13T10:25:49.010Z,36.13
2023-05-13T10:28:16.470Z,35.87
2023-05-13T10:30:43.809Z,33.87
2023-05-13T10:33:11.454Z,34.66
2023-05-13T10:35:45.401Z,34.47
2023-05-13T10:38:43.793Z,35.31
2023-05-13T10:41:38.566Z,34.66
2023-05-13T10:44:08.648Z,34.38
2023-05-13T10:46:39.299Z,35.14
2023-05-13T10:49:15.135Z,34.80
2023-05-13T10:51:48.798Z,35.38
2023-05-13T10:54:20.534Z,35.89
2023-05-13T10:56:58.559Z,34.82
2023-05-13T10:59:29.776Z,34.42
2023-05-13T11:01:56.668Z,32.74
2023-05-13T11:04:23.583Z,34.02
2023-05-13T11:06:52.252Z,33.16
2023-05-13T11:09:22.377Z,33.96
2023-05-13T11:11:53.619Z,33.79
2023-05-13T11:14:22.206Z,32.77
2023-05-13T11:17:01.354Z,32.82
2023-05-13T11:19:29.404Z,32.58
2023-05-13T11:21:58.348Z,32.55
2023-05-13T11:24:25.857Z,32.53
2023-05-13T11:26:58.748Z,31.86
2023-05-13T11:29:30.830Z,31.28
2023-05-13T11:32:00.771Z,31.69
2023-05-13T11:34:29.355Z,32.45
2023-05-13T11:37:16.695Z,32.60
2023-05-13T11:39:43.458Z,31.45
2023-05-13T11:42:12.036Z,32.73
2023-05-13T11:44:46.254Z,31.81
2023-05-13T11:47:13.220Z,29.42
2023-05-13T11:49:42.404Z,29.66
2023-05-13T11:52:14.772Z,29.71
2023-05-13T11:54:55.959Z,29.73
2023-05-13T11:57:33.754Z,30.08
2023-05-13T12:00:06.865Z,30.69
2023-05-13T12:02:36.902Z,30.76
2023-05-13T12:05:06.004Z,31.66
2023-05-13T12:07:34.329Z,30.77
2023-05-13T12:10:02.809Z,30.52
2023-05-13T12:12:31.355Z,29.93
2023-05-13T12:15:03.148Z,29.58
2023-05-13T12:17:31.545Z,28.29
2023-05-13T12:20:10.410Z,29.21
2023-05-13T12:22:43.239Z,29.12
2023-05-13T12:25:35.374Z,30.06
2023-05-13T12:28:06.688Z,30.49
2023-05-13T12:30:38.458Z,31.01
2023-05-13T12:33:11.704Z,30.48
2023-05-13T12:35:38.618Z,31.68
2023-05-13T12:38:06.169Z,31.52
2023-05-13T12:40:33.023Z,32.14
2023-05-13T12:43:01.598Z,31.45
2023-05-13T12:45:30.184Z,31.92
2023-05-13T12:47:59.132Z,32.44
2023-05-13T12:50:26.331Z,33.00
2023-05-13T12:52:53.875Z,32.51
2023-05-13T12:55:21.376Z,32.68
2023-05-13T12:58:03.035Z,33.09
2023-05-13T13:00:30.899Z,31.61
2023-05-13T13:02:57.760Z,32.33
2023-05-13T13:05:25.629Z,32.25
2023-05-13T13:07:52.453Z,32.40
2023-05-13T13:10:19.491Z,33.67
2023-05-13T13:12:46.380Z,33.24
2023-05-13T13:15:13.597Z,33.42
2023-05-13T13:17:40.548Z,33.36
2023-05-13T13:20:08.432Z,32.80
2023-05-13T13:22:36.677Z,32.55
2023-05-13T13:25:05.572Z,32.68
2023-05-13T13:27:33.742Z,31.23
2023-05-13T13:30:00.684Z,30.93
2023-05-13T13:32:27.617Z,31.30
2023-05-13T13:34:54.575Z,31.45
2023-05-13T13:37:21.313Z,32.15
2023-05-13T13:39:48.154Z,31.67
2023-05-13T13:42:15.022Z,31.72
2023-05-13T13:44:42.246Z,33.52
2023-05-13T13:47:09.296Z,32.98
2023-05-13T13:49:36.145Z,32.88
2023-05-13T13:52:03.386Z,32.55
2023-05-13T13:54:30.241Z,33.52
2023-05-13T13:56:57.300Z,33.43
2023-05-13T13:59:24.226Z,33.08
2023-05-13T14:01:52.148Z,33.65
2023-05-13T14:04:22.619Z,33.49
2023-05-13T14:06:50.789Z,33.15
2023-05-13T14:09:17.940Z,33.31
2023-05-13T14:11:45.095Z,33.49
2023-05-13T14:14:12.040Z,33.70
2023-05-13T14:16:39.506Z,33.49
2023-05-13T14:19:06.509Z,33.42
2023-05-13T14:21:33.603Z,33.43
2023-05-13T14:24:00.429Z,33.55
2023-05-13T14:26:27.688Z,33.71
2023-05-13T14:28:54.731Z,33.83
2023-05-13T14:31:21.504Z,33.73
2023-05-13T14:33:49.236Z,33.71
2023-05-13T14:36:16.234Z,33.82
2023-05-13T14:38:43.836Z,33.96
2023-05-13T14:41:10.765Z,33.87
2023-05-13T14:43:37.624Z,34.46
2023-05-13T14:46:04.572Z,34.67
2023-05-13T14:48:31.310Z,34.75
2023-05-13T14:50:58.157Z,34.36
2023-05-13T14:53:25.001Z,35.24
2023-05-13T14:55:51.938Z,34.34
2023-05-13T14:58:18.887Z,34.20
2023-05-13T15:00:45.768Z,34.59
2023-05-13T15:03:12.692Z,35.15
2023-05-13T15:05:43.293Z,34.34
2023-05-13T15:08:11.368Z,34.82
2023-05-13T15:10:38.315Z,34.78
2023-05-13T15:13:05.157Z,35.55
2023-05-13T15:15:33.134Z,34.71
2023-05-13T15:18:00.157Z,34.81
2023-05-13T15:20:28.168Z,34.54
2023-05-13T15:22:57.233Z,34.32
2023-05-13T15:25:24.176Z,34.05
2023-05-13T15:27:51.025Z,34.76
2023-05-13T15:30:18.070Z,36.69
2023-05-13T15:32:44.851Z,36.29
2023-05-13T15:35:11.860Z,36.65
2023-05-13T15:37:42.090Z,37.15
2023-05-13T15:40:09.435Z,37.36
2023-05-13T15:42:36.381Z,36.94
2023-05-13T15:45:03.633Z,36.31
2023-05-13T15:47:30.727Z,35.97
2023-05-13T15:49:58.042Z,35.96
2023-05-13T15:52:24.879Z,35.93
2023-05-13T15:54:51.616Z,35.74
2023-05-13T15:57:18.765Z,35.34
2023-05-13T15:59:45.715Z,35.40
2023-05-13T16:02:12.570Z,34.11
2023-05-13T16:04:39.506Z,34.31
2023-05-13T16:07:11.576Z,34.74
2023-05-13T16:09:39.219Z,35.08
2023-05-13T16:12:06.584Z,35.77
2023-05-13T16:14:33.418Z,36.22
2023-05-13T16:17:00.810Z,36.85
2023-05-13T16:19:27.710Z,37.83
2023-05-13T16:21:54.492Z,37.59
2023-05-13T16:24:22.016Z,37.56
2023-05-13T16:26:48.957Z,37.88
2023-05-13T16:29:17.454Z,39.36
2023-05-13T16:31:44.310Z,40.69
2023-05-13T16:34:11.232Z,40.75
2023-05-13T16:36:38.180Z,40.61
2023-05-13T16:39:05.010Z,40.86
2023-05-13T16:41:32.780Z,42.25
2023-05-13T16:43:59.521Z,42.60
2023-05-13T16:46:26.565Z,42.63
2023-05-13T16:48:53.901Z,43.15
2023-05-13T16:51:21.071Z,42.77
2023-05-13T16:53:47.933Z,42.65
2023-05-13T16:56:15.068Z,42.51
2023-05-13T16:58:42.019Z,42.98
2023-05-13T17:01:08.761Z,43.66
2023-05-13T17:03:35.655Z,44.36
2023-05-13T17:06:02.840Z,43.93
2023-05-13T17:08:30.193Z,44.00
2023-05-13T17:10:56.935Z,44.34
2023-05-13T17:13:23.684Z,44.38
2023-05-13T17:15:51.234Z,44.92
2023-05-13T17:18:18.088Z,45.31
2023-05-13T17:20:45.631Z,47.41
2023-05-13T17:23:12.481Z,47.54
2023-05-13T17:25:39.233Z,47.57
2023-05-13T17:28:08.929Z,47.18
2023-05-13T17:30:35.769Z,47.91
2023-05-13T17:33:02.503Z,48.20
2023-05-13T17:35:29.451Z,48.44
2023-05-13T17:37:56.296Z,48.35
2023-05-13T17:40:23.533Z,49.28
2023-05-13T17:42:52.587Z,48.79
2023-05-13T17:45:20.379Z,50.66
2023-05-13T17:47:47.673Z,49.99
2023-05-13T17:50:14.610Z,50.03
2023-05-13T17:52:41.378Z,51.86
2023-05-13T17:55:08.699Z,52.83
2023-05-13T17:57:35.744Z,52.36
2023-05-13T18:00:06.375Z,51.17
2023-05-13T18:02:35.609Z,52.14
2023-05-13T18:05:02.728Z,52.82
2023-05-13T18:07:30.279Z,54.00
2023-05-13T18:09:57.134Z,52.80
2023-05-13T18:12:25.604Z,53.23
2023-05-13T18:14:52.366Z,53.91
2023-05-13T18:17:19.184Z,54.13
2023-05-13T18:19:46.030Z,54.52
2023-05-13T18:22:12.772Z,54.31
2023-05-13T18:24:40.529Z,55.46
2023-05-13T18:27:07.887Z,55.45
2023-05-13T18:29:35.757Z,56.59
2023-05-13T18:32:04.360Z,56.44
2023-05-13T18:34:31.279Z,56.15
2023-05-13T18:36:58.434Z,57.72
2023-05-13T18:39:25.539Z,56.19
2023-05-13T18:41:52.324Z,57.36
2023-05-13T18:44:19.182Z,58.63
2023-05-13T18:46:46.109Z,58.06
2023-05-13T18:49:12.956Z,57.49
2023-05-13T18:51:39.890Z,58.04
2023-05-13T18:54:06.738Z,58.81
2023-05-13T18:56:33.788Z,60.35
2023-05-13T18:59:00.871Z,59.69
2023-05-13T19:01:28.075Z,60.23
2023-05-13T19:03:56.357Z,60.51
2023-05-13T19:06:23.711Z,59.68
2023-05-13T19:08:50.671Z,60.70
2023-05-13T19:11:17.702Z,60.34
2023-05-13T19:13:47.490Z,61.11
2023-05-13T19:16:15.578Z,61.30
2023-05-13T19:18:42.591Z,61.96
2023-05-13T19:21:09.475Z,61.97
2023-05-13T19:23:37.135Z,62.98
2023-05-13T19:26:03.979Z,62.52
2023-05-13T19:28:31.437Z,62.16
2023-05-13T19:30:58.513Z,62.67
2023-05-13T19:33:25.634Z,62.55
2023-05-13T19:35:52.381Z,61.68
2023-05-13T19:38:20.241Z,61.41
2023-05-13T19:40:47.491Z,61.64
2023-05-13T19:43:14.454Z,62.17
2023-05-13T19:45:41.381Z,63.45
2023-05-13T19:48:08.310Z,65.52
2023-05-13T19:50:35.269Z,66.37
2023-05-13T19:53:02.013Z,66.33
2023-05-13T19:55:28.755Z,66.33
2023-05-13T19:57:55.590Z,68.23
2023-05-13T20:00:22.870Z,67.54
2023-05-13T20:02:49.948Z,66.65
2023-05-13T20:05:17.055Z,66.12
2023-05-13T20:07:43.781Z,65.44
2023-05-13T20:10:11.133Z,65.63
2023-05-13T20:12:37.975Z,67.96
2023-05-13T20:15:06.140Z,68.65
2023-05-13T20:17:33.147Z,68.56
2023-05-13T20:20:00.296Z,67.46
2023-05-13T20:22:27.317Z,67.93
2023-05-13T20:24:54.130Z,70.97
2023-05-13T20:27:20.977Z,69.74
2023-05-13T20:29:48.945Z,67.71
2023-05-13T20:32:23.722Z,68.67
2023-05-13T20:34:51.846Z,69.16
2023-05-13T20:37:20.052Z,69.97
2023-05-13T20:39:47.992Z,71.15
2023-05-13T20:42:14.834Z,70.06
2023-05-13T20:44:41.678Z,71.28
2023-05-13T20:47:08.727Z,70.43
2023-05-13T20:49:36.484Z,71.11
2023-05-13T20:52:04.897Z,72.30
2023-05-13T20:54:33.240Z,72.08
2023-05-13T20:57:02.445Z,72.22
2023-05-13T20:59:30.157Z,71.62
2023-05-13T21:01:57.563Z,72.19
2023-05-13T21:04:27.342Z,72.25
2023-05-13T21:06:54.215Z,71.17
2023-05-13T21:09:20.959Z,71.89
2023-05-13T21:11:47.802Z,71.74
2023-05-13T21:14:14.641Z,71.91
2023-05-13T21:16:42.197Z,70.93
2023-05-13T21:19:18.357Z,69.88
2023-05-13T21:21:45.200Z,69.89
2023-05-13T21:24:13.484Z,69.74
2023-05-13T21:26:40.220Z,69.86
2023-05-13T21:29:07.054Z,69.15
2023-05-13T21:31:33.944Z,69.50
2023-05-13T21:34:00.780Z,70.17
2023-05-13T21:36:27.585Z,70.02
2023-05-13T21:38:54.417Z,69.78
2023-05-13T21:41:22.184Z,69.22
2023-05-13T21:43:48.927Z,69.48
2023-05-13T21:46:15.697Z,69.90
2023-05-13T21:48:42.531Z,69.71
2023-05-13T21:51:09.351Z,70.02
2023-05-13T21:53:36.191Z,70.92
2023-05-13T21:56:03.253Z,70.57
2023-05-13T21:58:30.144Z,70.66
2023-05-13T22:00:59.416Z,71.27
2023-05-13T22:03:26.290Z,71.41
2023-05-13T22:05:53.269Z,73.33
2023-05-13T22:08:20.726Z,73.13
2023-05-13T22:10:47.570Z,74.55
2023-05-13T22:13:14.311Z,75.34
2023-05-13T22:15:41.242Z,75.25
2023-05-13T22:18:08.304Z,73.84
2023-05-13T22:20:35.651Z,74.23
2023-05-13T22:23:02.499Z,73.65
2023-05-13T22:25:29.367Z,74.61
2023-05-13T22:27:56.190Z,76.56
2023-05-13T22:30:23.334Z,76.70
2023-05-13T22:32:51.073Z,75.76
2023-05-13T22:35:18.052Z,76.52
2023-05-13T22:37:44.989Z,76.48
2023-05-13T22:40:12.367Z,76.51
2023-05-13T22:42:39.198Z,75.30
2023-05-13T22:45:06.688Z,75.32
2023-05-13T22:47:36.396Z,75.54
2023-05-13T22:50:04.447Z,76.86
2023-05-13T22:52:31.287Z,76.06
2023-05-13T22:54:58.131Z,75.85
2023-05-13T22:57:26.691Z,76.81
2023-05-13T22:59:53.432Z,77.82
2023-05-13T23:02:20.294Z,77.65
2023-05-13T23:04:47.116Z,76.74
2023-05-13T23:07:13.952Z,78.10
2023-05-13T23:09:41.308Z,78.18
2023-05-13T23:12:08.049Z,77.76
2023-05-13T23:14:34.994Z,76.53
2023-05-13T23:17:01.841Z,76.14
2023-05-13T23:19:29.292Z,77.46
2023-05-13T23:21:56.034Z,77.06
2023-05-13T23:24:22.874Z,76.63
2023-05-13T23:26:49.733Z,75.33
2023-05-13T23:29:16.862Z,77.65
2023-05-13T23:31:43.627Z,76.44
2023-05-13T23:34:10.445Z,77.65
2023-05-13T23:36:37.192Z,78.44
2023-05-13T23:39:04.343Z,78.46
2023-05-13T23:41:31.302Z,78.81
2023-05-13T23:43:58.019Z,78.08
2023-05-13T23:46:25.523Z,78.36
2023-05-13T23:48:52.425Z,78.21
2023-05-13T23:51:19.161Z,79.19
2023-05-13T23:53:46.000Z,78.10
2023-05-13T23:56:12.855Z,77.12
2023-05-13T23:58:39.796Z,76.99
